createdAt,value
2023-02-11T00:00:41.566Z,32.40
2023-02-11T00:03:08.219Z,29.27
2023-02-11T00:05:35.358Z,30.30
2023-02-11T00:08:01.873Z,33.30
2023-02-11T00:10:28.418Z,28.53
2023-02-11T00:12:55.820Z,34.90
2023-02-11T00:15:22.424Z,29.97
2023-02-11T00:17:48.926Z,36.23
2023-02-11T00:20:17.810Z,26.27
2023-02-11T00:22:44.514Z,29.53
2023-02-11T00:25:10.990Z,29.87
2023-02-11T00:27:37.841Z,35.20
2023-02-11T00:30:06.445Z,27.73
2023-02-11T00:32:33.362Z,27.90
2023-02-11T00:35:00.478Z,26.60
2023-02-11T00:37:27.296Z,33.67
2023-02-11T00:39:53.889Z,31.87
2023-02-11T00:42:20.514Z,27.27
2023-02-11T00:44:49.542Z,25.73
2023-02-11T00:47:16.060Z,27.83
2023-02-11T00:49:42.566Z,27.13
2023-02-11T00:52:09.058Z,29.87
2023-02-11T00:54:35.607Z,25.27
2023-02-11T00:57:02.162Z,29.13
2023-02-11T00:59:28.758Z,27.50
2023-02-11T01:01:55.623Z,25.77
2023-02-11T01:04:22.263Z,24.37
2023-02-11T01:06:48.772Z,27.97
2023-02-11T01:09:15.283Z,28.23
2023-02-11T01:11:42.033Z,24.73
2023-02-11T01:14:09.142Z,27.10
2023-02-11T01:16:35.705Z,23.97
2023-02-11T01:19:02.467Z,22.77
2023-02-11T01:21:28.969Z,26.27
2023-02-11T01:23:55.569Z,24.27
2023-02-11T01:26:22.154Z,28.47
2023-02-11T01:28:48.674Z,25.60
2023-02-11T01:31:15.416Z,26.93
2023-02-11T01:33:42.300Z,26.73
2023-02-11T01:36:12.074Z,28.30
2023-02-11T01:38:41.467Z,26.23
2023-02-11T01:41:12.155Z,27.73
2023-02-11T01:43:42.497Z,25.13
2023-02-11T01:46:31.194Z,24.83
2023-02-11T01:49:11.301Z,27.13
2023-02-11T01:51:43.994Z,28.73
2023-02-11T01:54:33.513Z,26.47
2023-02-11T01:57:21.027Z,23.23
2023-02-11T02:00:08.857Z,26.57
2023-02-11T02:02:50.370Z,28.93
2023-02-11T02:05:29.188Z,24.17
2023-02-11T02:08:18.998Z,25.87
2023-02-11T02:10:53.980Z,24.10
2023-02-11T02:13:20.666Z,25.63
2023-02-11T02:15:59.351Z,24.67
2023-02-11T02:18:41.027Z,28.10
2023-02-11T02:21:13.636Z,26.63
2023-02-11T02:24:09.516Z,27.43
2023-02-11T02:26:38.986Z,21.43
2023-02-11T02:29:28.436Z,23.70
2023-02-11T02:32:31.972Z,22.10
2023-02-11T02:35:03.008Z,23.90
2023-02-11T02:38:08.694Z,22.80
2023-02-11T02:40:44.060Z,24.97
2023-02-11T02:43:12.114Z,22.67
2023-02-11T02:45:38.685Z,26.50
2023-02-11T02:48:05.356Z,26.77
2023-02-11T02:50:37.067Z,23.57
2023-02-11T02:53:37.383Z,25.87
2023-02-11T02:56:17.341Z,22.80
2023-02-11T02:58:58.954Z,24.87
2023-02-11T03:01:57.543Z,24.43
2023-02-11T03:04:50.430Z,23.67
2023-02-11T03:07:52.566Z,20.20
2023-02-11T03:10:25.205Z,24.43
2023-02-11T03:12:54.506Z,27.57
2023-02-11T03:15:23.470Z,25.07
2023-02-11T03:17:54.160Z,23.17
2023-02-11T03:20:23.029Z,26.77
2023-02-11T03:23:02.310Z,25.40
2023-02-11T03:25:34.091Z,28.60
2023-02-11T03:28:13.589Z,24.67
2023-02-11T03:30:56.311Z,27.10
2023-02-11T03:33:29.229Z,24.07
2023-02-11T03:36:02.793Z,22.70
2023-02-11T03:38:37.922Z,21.33
2023-02-11T03:41:08.113Z,23.17
2023-02-11T03:43:42.291Z,24.97
2023-02-11T03:46:10.874Z,23.83
2023-02-11T03:49:02.104Z,24.40
2023-02-11T03:51:31.421Z,26.50
2023-02-11T03:54:02.053Z,23.23
2023-02-11T03:56:33.055Z,25.50
2023-02-11T03:58:59.733Z,25.50
2023-02-11T04:01:26.679Z,26.17
2023-02-11T04:03:53.227Z,25.77
2023-02-11T04:06:19.721Z,25.23
2023-02-11T04:08:46.262Z,25.80
2023-02-11T04:11:12.971Z,24.50
2023-02-11T04:13:39.471Z,23.40
2023-02-11T04:16:06.211Z,26.27
2023-02-11T04:18:32.872Z,27.83
2023-02-11T04:20:59.322Z,23.07
2023-02-11T04:23:26.081Z,27.03
2023-02-11T04:25:52.790Z,27.80
2023-02-11T04:28:19.453Z,27.30
2023-02-11T04:30:46.056Z,28.23
2023-02-11T04:33:12.597Z,23.97
2023-02-11T04:35:39.241Z,26.93
2023-02-11T04:38:05.749Z,24.40
2023-02-11T04:40:34.839Z,29.63
2023-02-11T04:43:01.358Z,28.60
2023-02-11T04:45:27.849Z,32.23
2023-02-11T04:47:54.346Z,26.10
2023-02-11T04:50:20.936Z,23.13
2023-02-11T04:52:47.696Z,24.87
2023-02-11T04:55:14.258Z,37.43
2023-02-11T04:57:40.793Z,30.63
2023-02-11T05:00:08.323Z,31.27
2023-02-11T05:02:34.791Z,28.30
2023-02-11T05:05:01.655Z,34.90
2023-02-11T05:07:30.845Z,30.50
2023-02-11T05:09:57.359Z,33.70
2023-02-11T05:12:23.988Z,32.00
2023-02-11T05:14:50.483Z,34.70
2023-02-11T05:17:17.132Z,30.37
2023-02-11T05:19:44.075Z,36.07
2023-02-11T05:22:10.569Z,31.30
2023-02-11T05:24:37.096Z,38.83
2023-02-11T05:27:03.802Z,32.80
2023-02-11T05:29:30.382Z,34.13
2023-02-11T05:32:00.222Z,31.37
2023-02-11T05:34:26.868Z,33.70
2023-02-11T05:36:53.711Z,35.17
2023-02-11T05:39:20.233Z,33.33
2023-02-11T05:41:46.737Z,30.60
2023-02-11T05:44:13.493Z,34.57
2023-02-11T05:46:40.088Z,31.13
2023-02-11T05:49:08.375Z,34.07
2023-02-11T05:51:34.909Z,37.90
2023-02-11T05:54:01.464Z,32.80
2023-02-11T05:56:28.547Z,30.50
2023-02-11T05:58:55.110Z,32.77
2023-02-11T06:01:21.713Z,39.57
2023-02-11T06:03:50.419Z,37.70
2023-02-11T06:06:17.566Z,36.30
2023-02-11T06:08:44.114Z,41.47
2023-02-11T06:11:10.623Z,44.63
2023-02-11T06:13:39.715Z,35.53
2023-02-11T06:16:06.413Z,35.23
2023-02-11T06:18:33.745Z,40.10
2023-02-11T06:21:01.181Z,36.43
2023-02-11T06:23:30.248Z,39.77
2023-02-11T06:26:02.246Z,36.87
2023-02-11T06:28:31.260Z,35.10
2023-02-11T06:30:59.844Z,40.03
2023-02-11T06:33:26.360Z,41.47
2023-02-11T06:35:55.932Z,39.60
2023-02-11T06:38:22.654Z,33.60
2023-02-11T06:40:49.832Z,45.83
2023-02-11T06:43:17.181Z,37.67
2023-02-11T06:45:44.200Z,40.50
2023-02-11T06:48:12.942Z,35.70
2023-02-11T06:50:39.531Z,45.27
2023-02-11T06:53:06.093Z,38.30
2023-02-11T06:55:35.327Z,46.13
2023-02-11T06:58:01.841Z,35.07
2023-02-11T07:00:29.862Z,43.30
2023-02-11T07:02:56.594Z,43.90
2023-02-11T07:05:23.200Z,40.80
2023-02-11T07:07:49.798Z,42.33
2023-02-11T07:10:16.410Z,32.83
2023-02-11T07:12:42.929Z,37.53
2023-02-11T07:15:09.668Z,38.23
2023-02-11T07:17:36.718Z,37.23
2023-02-11T07:20:03.883Z,39.50
2023-02-11T07:22:30.737Z,36.43
2023-02-11T07:24:57.202Z,37.30
2023-02-11T07:27:23.780Z,41.53
2023-02-11T07:29:50.738Z,44.37
2023-02-11T07:32:17.353Z,37.63
2023-02-11T07:34:44.419Z,33.73
2023-02-11T07:37:11.023Z,39.23
2023-02-11T07:39:37.787Z,36.87
2023-02-11T07:42:04.733Z,40.53
2023-02-11T08:07:22.002Z,44.73
2023-02-11T08:09:48.572Z,44.60
2023-02-11T08:12:15.104Z,47.33
2023-02-11T08:14:41.760Z,42.80
2023-02-11T08:17:08.388Z,40.53
2023-02-11T08:19:35.315Z,43.23
2023-02-11T08:22:02.857Z,37.90
2023-02-11T08:24:29.362Z,39.83
2023-02-11T08:26:56.106Z,38.07
2023-02-11T08:29:22.792Z,42.63
2023-02-11T08:31:49.844Z,40.53
2023-02-11T08:34:19.235Z,45.93
2023-02-11T08:36:47.358Z,40.40
2023-02-11T08:39:20.055Z,46.23
2023-02-11T08:41:49.189Z,48.37
2023-02-11T08:44:17.892Z,44.30
2023-02-11T08:46:44.467Z,46.63
2023-02-11T08:49:11.135Z,58.30
2023-02-11T08:51:37.821Z,41.03
2023-02-11T08:54:04.565Z,48.17
2023-02-11T08:56:33.182Z,43.17
2023-02-11T08:58:59.792Z,42.40
2023-02-11T09:01:29.191Z,43.67
2023-02-11T09:03:56.969Z,48.90
2023-02-11T09:06:26.533Z,47.00
2023-02-11T09:08:55.703Z,43.87
2023-02-11T09:11:26.919Z,45.20
2023-02-11T09:13:54.597Z,44.93
2023-02-11T09:16:25.506Z,47.77
2023-02-11T09:18:52.719Z,44.53
2023-02-11T09:21:20.114Z,49.33
2023-02-11T09:23:48.053Z,45.60
2023-02-11T09:26:19.361Z,43.63
2023-02-11T09:28:47.074Z,45.23
2023-02-11T09:31:16.780Z,43.33
2023-02-11T09:33:48.188Z,50.27
2023-02-11T09:36:23.664Z,43.03
2023-02-11T09:38:51.007Z,46.57
2023-02-11T09:41:52.711Z,39.73
2023-02-11T09:44:34.105Z,44.63
2023-02-11T09:47:24.247Z,43.10
2023-02-11T09:49:53.925Z,59.97
2023-02-11T09:52:45.834Z,42.20
2023-02-11T09:55:21.289Z,48.43
2023-02-11T09:57:48.074Z,46.10
2023-02-11T10:00:24.052Z,44.33
2023-02-11T10:03:14.490Z,38.03
2023-02-11T10:06:05.481Z,47.97
2023-02-11T10:08:58.642Z,49.73
2023-02-11T10:11:34.460Z,49.63
2023-02-11T10:14:25.859Z,46.80
2023-02-11T10:17:21.186Z,46.40
2023-02-11T10:20:21.036Z,49.37
2023-02-11T10:22:52.692Z,42.23
2023-02-11T10:25:27.047Z,53.13
2023-02-11T10:27:57.577Z,53.00
2023-02-11T10:30:27.460Z,44.63
2023-02-11T10:33:02.988Z,48.87
2023-02-11T10:35:29.676Z,47.27
2023-02-11T10:37:56.387Z,43.40
2023-02-11T10:40:26.126Z,46.87
2023-02-11T10:42:59.671Z,47.27
2023-02-11T10:45:40.149Z,44.73
2023-02-11T10:48:38.045Z,47.83
2023-02-11T10:51:28.393Z,49.70
2023-02-11T10:54:04.312Z,48.93
2023-02-11T10:56:58.470Z,50.93
2023-02-11T10:59:31.450Z,51.23
2023-02-11T11:02:06.120Z,42.77
2023-02-11T11:04:33.774Z,51.63
2023-02-11T11:07:11.042Z,48.13
2023-02-11T11:10:05.861Z,49.63
2023-02-11T11:12:48.929Z,45.80
2023-02-11T11:15:24.906Z,43.73
2023-02-11T11:18:20.813Z,52.83
2023-02-11T11:21:01.019Z,52.40
2023-02-11T11:23:30.484Z,53.17
2023-02-11T11:26:06.532Z,49.47
2023-02-11T11:28:59.098Z,44.37
2023-02-11T11:31:36.814Z,44.23
2023-02-11T11:34:28.110Z,56.87
2023-02-11T11:36:57.476Z,47.23
2023-02-11T11:39:31.380Z,51.70
2023-02-11T11:41:59.449Z,47.87
2023-02-11T11:44:36.764Z,48.40
2023-02-11T11:47:12.487Z,48.50
2023-02-11T11:49:50.264Z,47.37
2023-02-11T11:52:28.072Z,45.90
2023-02-11T11:55:21.562Z,48.33
2023-02-11T11:57:48.936Z,52.60
2023-02-11T12:00:23.052Z,58.50
2023-02-11T12:03:37.467Z,49.67
2023-02-11T12:06:07.174Z,50.30
2023-02-11T12:08:52.487Z,53.37
2023-02-11T12:11:36.663Z,49.60
2023-02-11T12:14:24.562Z,53.77
2023-02-11T12:17:01.678Z,54.93
2023-02-11T12:19:40.343Z,59.90
2023-02-11T12:22:35.854Z,53.03
2023-02-11T12:25:28.859Z,48.90
2023-02-11T12:28:11.061Z,48.87
2023-02-11T12:30:55.808Z,57.57
2023-02-11T12:33:49.665Z,55.03
2023-02-11T12:36:47.452Z,50.53
2023-02-11T12:39:16.936Z,52.23
2023-02-11T12:42:02.842Z,47.53
2023-02-11T12:45:16.030Z,50.23
2023-02-11T12:48:14.156Z,55.97
2023-02-11T12:50:52.947Z,53.70
2023-02-11T12:53:26.826Z,49.63
2023-02-11T12:56:01.069Z,44.67
2023-02-11T12:58:44.053Z,48.07
2023-02-11T13:01:20.372Z,50.70
2023-02-11T13:03:59.058Z,55.70
2023-02-11T13:06:34.731Z,50.77
2023-02-11T13:09:04.697Z,51.70
2023-02-11T13:11:43.184Z,47.27
2023-02-11T13:14:15.663Z,54.07
2023-02-11T13:16:45.738Z,50.53
2023-02-11T13:19:37.306Z,58.13
2023-02-11T13:22:39.300Z,53.87
2023-02-11T13:25:30.795Z,50.87
2023-02-11T13:28:09.678Z,51.83
2023-02-11T13:30:41.039Z,52.07
2023-02-11T13:33:20.002Z,54.00
2023-02-11T13:36:06.823Z,55.73
2023-02-11T13:38:33.700Z,50.80
2023-02-11T13:41:23.129Z,50.40
2023-02-11T13:44:22.304Z,60.93
2023-02-11T13:46:53.967Z,50.30
2023-02-11T13:49:36.969Z,52.20
2023-02-11T13:52:16.447Z,52.40
2023-02-11T13:54:50.123Z,54.97
2023-02-11T13:57:19.425Z,51.43
2023-02-11T13:59:52.266Z,51.83
2023-02-11T14:02:41.754Z,55.30
2023-02-11T14:05:28.527Z,45.87
2023-02-11T14:08:29.071Z,49.30
2023-02-11T14:10:58.596Z,47.70
2023-02-11T14:13:31.892Z,51.50
2023-02-11T14:16:17.212Z,53.77
2023-02-11T14:18:49.162Z,44.97
2023-02-11T14:21:35.626Z,52.23
2023-02-11T14:24:02.133Z,52.13
2023-02-11T14:26:35.793Z,58.27
2023-02-11T14:29:14.380Z,52.97
2023-02-11T14:31:49.286Z,49.83
2023-02-11T14:34:33.472Z,54.13
2023-02-11T14:37:26.970Z,48.63
2023-02-11T14:40:00.481Z,66.03
2023-02-11T14:42:29.548Z,67.53
2023-02-11T14:45:03.294Z,72.03
2023-02-11T14:47:46.837Z,56.70
2023-02-11T14:50:27.534Z,55.10
2023-02-11T14:52:55.294Z,47.03
2023-02-11T14:55:42.079Z,46.50
2023-02-11T14:58:19.117Z,45.63
2023-02-11T15:00:53.183Z,52.10
2023-02-11T15:03:34.156Z,55.53
2023-02-11T15:06:05.407Z,47.30
2023-02-11T15:08:34.608Z,50.47
2023-02-11T15:11:03.740Z,44.83
2023-02-11T15:13:32.762Z,52.17
2023-02-11T15:16:08.030Z,48.53
2023-02-11T15:18:39.279Z,57.23
2023-02-11T15:21:06.485Z,52.17
2023-02-11T15:23:33.381Z,51.47
2023-02-11T15:26:04.653Z,48.47
2023-02-11T15:28:35.464Z,51.47
2023-02-11T15:31:05.522Z,54.70
2023-02-11T15:33:32.929Z,51.23
2023-02-11T15:36:00.737Z,56.27
2023-02-11T15:38:28.058Z,51.70
2023-02-11T15:41:01.136Z,55.03
2023-02-11T15:44:00.323Z,58.50
2023-02-11T15:46:38.248Z,63.00
2023-02-11T15:49:06.583Z,61.90
2023-02-11T15:51:36.072Z,58.33
2023-02-11T15:54:07.002Z,55.07
2023-02-11T15:56:43.434Z,60.70
2023-02-11T15:59:35.339Z,59.57
2023-02-11T16:02:21.963Z,52.97
2023-02-11T16:04:54.315Z,57.17
2023-02-11T16:07:49.930Z,52.97
2023-02-11T16:10:17.702Z,46.30
2023-02-11T16:12:57.959Z,49.90
2023-02-11T16:15:33.343Z,52.03
2023-02-11T16:18:12.982Z,54.97
2023-02-11T16:20:47.859Z,55.20
2023-02-11T16:23:21.867Z,58.60
2023-02-11T16:25:51.614Z,49.37
2023-02-11T16:28:18.167Z,51.13
2023-02-11T16:30:44.907Z,59.40
2023-02-11T16:33:11.786Z,51.27
2023-02-11T16:35:40.824Z,54.83
2023-02-11T16:38:07.343Z,56.07
2023-02-11T16:40:33.902Z,52.53
2023-02-11T16:43:02.421Z,58.53
2023-02-11T16:45:28.931Z,62.90
2023-02-11T16:47:55.534Z,63.43
2023-02-11T16:50:24.210Z,60.87
2023-02-11T16:52:53.957Z,58.93
2023-02-11T16:55:21.943Z,54.83
2023-02-11T16:57:51.553Z,56.40
2023-02-11T17:00:18.477Z,57.23
2023-02-11T17:02:45.065Z,57.00
2023-02-11T17:05:19.109Z,62.30
2023-02-11T17:07:46.183Z,60.47
2023-02-11T17:10:22.624Z,64.83
2023-02-11T17:12:50.000Z,58.30
2023-02-11T17:15:16.816Z,51.87
2023-02-11T17:17:43.582Z,58.17
2023-02-11T17:20:12.724Z,53.67
2023-02-11T17:22:39.250Z,52.33
2023-02-11T17:25:06.688Z,55.83
2023-02-11T17:27:33.419Z,53.93
2023-02-11T17:30:00.370Z,57.47
2023-02-11T17:32:26.995Z,52.27
2023-02-11T17:34:56.302Z,59.17
2023-02-11T17:37:23.357Z,58.73
2023-02-11T17:39:50.943Z,57.87
2023-02-11T17:42:19.288Z,56.73
2023-02-11T17:44:45.883Z,61.90
2023-02-11T17:47:12.861Z,59.67
2023-02-11T17:49:39.957Z,71.23
2023-02-11T17:52:06.591Z,64.23
2023-02-11T17:54:33.200Z,68.40
2023-02-11T17:56:59.696Z,58.83
2023-02-11T17:59:26.587Z,62.67
2023-02-11T18:01:53.132Z,63.43
2023-02-11T18:04:20.315Z,59.47
2023-02-11T18:06:47.451Z,57.37
2023-02-11T18:09:13.956Z,56.40
2023-02-11T18:11:41.221Z,54.40
2023-02-11T18:14:08.541Z,57.30
2023-02-11T18:16:38.736Z,57.53
2023-02-11T18:19:07.726Z,54.90
2023-02-11T18:21:34.425Z,53.77
2023-02-11T18:24:05.967Z,63.53
2023-02-11T18:26:33.202Z,62.40
2023-02-11T18:29:00.554Z,61.50
2023-02-11T18:31:27.695Z,54.33
2023-02-11T18:33:54.431Z,57.77
2023-02-11T18:36:22.361Z,54.40
2023-02-11T18:38:49.136Z,59.30
2023-02-11T18:41:15.947Z,55.30
2023-02-11T18:43:43.116Z,52.70
2023-02-11T18:46:12.631Z,61.67
2023-02-11T18:48:40.487Z,60.20
2023-02-11T18:51:15.117Z,60.73
2023-02-11T18:53:42.871Z,55.30
2023-02-11T18:56:15.366Z,65.33
2023-02-11T18:58:42.155Z,62.07
2023-02-11T19:01:13.400Z,62.93
2023-02-11T19:03:40.139Z,57.17
2023-02-11T19:06:07.422Z,59.80
2023-02-11T19:08:33.974Z,58.17
2023-02-11T19:11:00.518Z,58.90
2023-02-11T19:13:29.642Z,54.00
2023-02-11T19:15:56.203Z,61.30
2023-02-11T19:18:22.779Z,58.27
2023-02-11T19:20:49.432Z,55.87
2023-02-11T19:23:15.922Z,56.53
2023-02-11T19:25:47.291Z,62.43
2023-02-11T19:28:14.415Z,60.13
2023-02-11T19:30:41.590Z,52.03
2023-02-11T19:33:10.197Z,60.07
2023-02-11T19:35:36.951Z,61.43
2023-02-11T19:38:06.339Z,64.50
2023-02-11T19:40:32.948Z,57.83
2023-02-11T19:42:59.503Z,57.47
2023-02-11T19:45:26.961Z,58.03
2023-02-11T19:47:56.822Z,67.37
2023-02-11T19:50:23.750Z,64.47
2023-02-11T19:52:50.291Z,67.53
2023-02-11T19:55:16.797Z,59.50
2023-02-11T19:57:43.391Z,59.77
2023-02-11T20:00:11.225Z,61.50
2023-02-11T20:02:39.122Z,59.93
2023-02-11T20:05:06.264Z,57.90
2023-02-11T20:07:32.812Z,62.80
2023-02-11T20:09:59.989Z,58.57
2023-02-11T20:12:26.512Z,56.63
2023-02-11T20:14:52.995Z,56.77
2023-02-11T20:17:19.519Z,65.43
2023-02-11T20:19:46.061Z,59.27
2023-02-11T20:22:12.559Z,54.57
2023-02-11T20:24:39.218Z,62.80
2023-02-11T20:27:08.423Z,62.67
2023-02-11T20:29:37.729Z,64.37
2023-02-11T20:32:05.501Z,63.37
2023-02-11T20:34:32.797Z,59.10
2023-02-11T20:36:59.782Z,57.90
2023-02-11T20:39:26.906Z,59.80
2023-02-11T20:41:54.587Z,66.07
2023-02-11T20:44:24.326Z,57.40
2023-02-11T20:46:51.676Z,60.23
2023-02-11T20:49:21.674Z,61.43
2023-02-11T20:51:49.169Z,61.67
2023-02-11T20:54:17.958Z,60.77
2023-02-11T20:56:47.796Z,61.03
2023-02-11T20:59:15.246Z,60.80
2023-02-11T21:01:44.090Z,61.13
2023-02-11T21:04:13.918Z,60.23
2023-02-11T21:06:43.751Z,58.97
2023-02-11T21:09:13.821Z,61.47
2023-02-11T21:11:41.028Z,62.47
2023-02-11T21:14:07.880Z,59.57
2023-02-11T21:16:34.466Z,61.93
2023-02-11T21:19:01.407Z,57.37
2023-02-11T21:21:27.941Z,61.00
2023-02-11T21:23:56.173Z,59.63
2023-02-11T21:26:23.187Z,59.37
2023-02-11T21:28:50.137Z,60.53
2023-02-11T21:31:20.725Z,60.43
2023-02-11T21:33:50.494Z,54.40
2023-02-11T21:36:17.952Z,57.97
2023-02-11T21:38:44.994Z,55.63
2023-02-11T21:41:12.226Z,62.73
2023-02-11T21:43:38.893Z,58.43
2023-02-11T21:46:15.558Z,60.43
2023-02-11T21:48:42.823Z,62.87
2023-02-11T21:51:13.287Z,60.87
2023-02-11T21:53:39.794Z,60.60
2023-02-11T21:56:08.741Z,57.50
2023-02-11T21:58:35.970Z,66.50
2023-02-11T22:01:09.625Z,60.80
2023-02-11T22:03:36.200Z,60.43
2023-02-11T22:06:09.571Z,56.73
2023-02-11T22:08:36.224Z,60.07
2023-02-11T22:11:07.680Z,59.57
2023-02-11T22:13:34.819Z,58.73
2023-02-11T22:16:04.055Z,57.60
2023-02-11T22:18:30.688Z,62.27
2023-02-11T22:21:03.245Z,66.77
2023-02-11T22:23:30.009Z,62.50
2023-02-11T22:25:57.567Z,61.20
2023-02-11T22:28:28.193Z,65.33
2023-02-11T22:30:59.144Z,57.03
2023-02-11T22:33:27.068Z,58.23
2023-02-11T22:36:18.702Z,57.60
2023-02-11T22:38:45.407Z,62.40
2023-02-11T22:41:12.545Z,58.53
2023-02-11T22:43:42.906Z,58.87
2023-02-11T22:46:12.426Z,58.07
2023-02-11T22:48:39.040Z,56.73
2023-02-11T22:51:18.090Z,61.53
2023-02-11T22:53:44.809Z,61.70
2023-02-11T22:56:16.244Z,57.63
2023-02-11T22:58:43.204Z,57.43
2023-02-11T23:01:17.341Z,61.40
2023-02-11T23:03:49.451Z,54.93
2023-02-11T23:06:16.543Z,65.23
2023-02-11T23:08:44.140Z,56.57
2023-02-11T23:11:17.570Z,54.60
2023-02-11T23:13:47.218Z,56.83
2023-02-11T23:16:16.730Z,61.00
2023-02-11T23:18:51.541Z,62.30
2023-02-11T23:21:22.356Z,59.40
2023-02-11T23:23:53.405Z,58.10
2023-02-11T23:26:20.024Z,60.97
2023-02-11T23:28:47.381Z,59.13
2023-02-11T23:31:21.189Z,53.37
2023-02-11T23:33:50.856Z,59.93
2023-02-11T23:36:19.472Z,62.23
2023-02-11T23:38:46.753Z,59.67
2023-02-11T23:41:14.083Z,51.03
2023-02-11T23:43:41.376Z,58.73
2023-02-11T23:46:08.887Z,55.20
2023-02-11T23:48:40.639Z,55.80
2023-02-11T23:51:09.726Z,57.40
2023-02-11T23:53:38.055Z,58.07
2023-02-11T23:56:15.697Z,52.17
2023-02-11T23:58:42.404Z,53.60
